Latest Weather Observations for Tindal

IDD60801

Issued at 1:05 pm CST Wednesday 23 July 2014 (issued every 30 minutes, with the page automatically refreshed every 10 minutes)

About weather observations | Map of weather stations | Latest weather observations for NT | Other Formats
Station Details ID: 014932 Name: TINDAL RAAF Lat: -14.52 Lon: 132.38 Height: 133.6 m
Data from the previous 72 hours. | See also: Recent months at Tindal
Date/Time
CST
Temp
°C
App
Temp
°C
Dew
Point
Rel
Hum
%
Delta-T
°C
Wind Press
QNH
hPa
Press
MSL
hPa
Rain
since 9 am
mm
Dir
 
Spd
km/h
Gust
km/h
Spd
kts
Gust
kts
23/01:00pm 29.8 25.1 -5.1 10 15.3 ESE 11 24 6 13 1014.0 - 0.0
23/12:30pm 30.0 25.1 -3.6 11 15.2 SE 13 24 7 13 1014.6 - 0.0
23/12:00pm 29.0 23.6 -1.2 14 14.1 SE 17 28 9 15 1015.3 1014.9 0.0
23/11:30am 28.5 24.6 3.4 20 12.7 E 13 22 7 12 1015.9 - 0.0
23/11:00am 27.7 25.8 7.5 28 10.9 E 7 13 4 7 1016.4 - 0.0
23/10:30am 26.6 25.6 10.3 36 9.2 SE 6 7 3 4 1016.7 - 0.0
23/10:00am 24.0 23.8 12.9 50 6.4 SSE 6 9 3 5 1017.1 - 0.0
23/09:30am 22.6 23.2 13.1 55 5.5 ENE 2 7 1 4 1017.2 - 0.0
23/09:00am 20.1 19.5 11.6 58 4.7 ESE 6 9 3 5 1017.1 1016.6 0.0
23/08:30am 17.3 16.1 10.2 63 3.8 SSE 7 9 4 5 1017.0 - 0.0
23/08:00am 14.3 14.3 9.7 74 2.4 CALM 0 0 0 0 1016.7 - 0.0
23/07:30am 11.4 11.1 8.6 83 1.4 CALM 0 0 0 0 1016.4 - 0.0
23/07:00am 11.8 11.5 8.5 80 1.6 CALM 0 0 0 0 1016.0 - 0.0
23/06:30am 12.8 12.6 8.9 77 2.0 CALM 0 0 0 0 1015.6 - 0.0
23/06:00am 12.7 10.7 8.6 76 2.1 W 9 9 5 5 1015.4 1015.0 0.0
23/05:30am 12.9 11.3 8.6 75 2.2 ESE 7 9 4 5 1015.1 - 0.0
23/05:00am 13.5 11.7 8.1 70 2.7 SSE 7 7 4 4 1014.8 - 0.0
23/04:30am 13.3 11.2 8.2 71 2.5 SSE 9 11 5 6 1014.9 - 0.0
23/04:00am 13.4 10.4 7.8 69 2.8 S 13 13 7 7 1015.1 - 0.0
23/03:30am 14.9 12.7 7.9 63 3.5 S 9 11 5 6 1015.2 - 0.0
23/03:00am 14.8 12.6 7.8 63 3.5 S 9 11 5 6 1015.5 1015.1 0.0
23/02:30am 19.0 16.7 10.6 58 4.6 ENE 13 17 7 9 1015.7 - 0.0
23/02:00am 15.1 13.1 7.2 59 3.9 SE 7 9 4 5 1015.9 - 0.0
23/01:30am 14.7 12.7 7.3 61 3.7 SE 7 9 4 5 1016.0 - 0.0
23/01:00am 14.8 12.3 6.6 58 4.0 SSE 9 11 5 6 1016.0 - 0.0
23/12:30am 14.4 11.9 6.7 60 3.8 S 9 13 5 7 1016.2 - 0.0
23/12:00am 15.9 13.7 6.3 53 4.7 S 7 7 4 4 1015.8 1015.4 0.0
 
Date/Time
CST
Temp
°C
App
Temp
°C
Dew
Point
Rel
Hum
%
Delta-T
°C
Wind Press
QNH
hPa
Press
MSL
hPa
Rain
since 9 am
mm
Dir
 
Spd
km/h
Gust
km/h
Spd
kts
Gust
kts
22/11:30pm 16.4 13.4 6.2 51 5.0 SSE 11 11 6 6 1015.6 - 0.0
22/11:00pm 15.4 12.6 6.9 57 4.2 SE 11 13 6 7 1015.3 - 0.0
22/10:30pm 16.2 14.1 6.6 53 4.7 SE 7 9 4 5 1015.2 - 0.0
22/10:00pm 17.4 15.5 6.6 49 5.4 ESE 6 6 3 3 1015.0 - 0.0
22/09:30pm 17.9 17.1 6.4 47 5.7 CALM 0 0 0 0 1014.8 - 0.0
22/09:00pm 17.7 15.7 6.9 49 5.4 SE 7 7 4 4 1014.7 1014.3 0.0
22/08:30pm 18.3 15.8 6.5 46 5.9 SE 9 13 5 7 1014.3 - 0.0
22/08:00pm 21.6 18.9 5.5 35 8.1 E 9 11 5 6 1014.1 - 0.0
22/07:30pm 23.2 19.9 4.7 30 9.2 E 11 13 6 7 1013.7 - 0.0
22/07:00pm 24.9 21.9 4.1 26 10.4 E 9 13 5 7 1013.4 - 0.0
22/06:30pm 26.9 22.7 4.0 23 11.6 ESE 15 19 8 10 1013.1 - 0.0
22/06:00pm 28.5 24.0 4.1 21 12.5 ESE 17 20 9 11 1012.9 1012.4 0.0
22/05:30pm 30.0 25.6 4.6 20 13.2 E 17 24 9 13 1012.6 - 0.0
22/05:00pm 30.2 25.7 4.0 19 13.5 ESE 17 20 9 11 1012.5 - 0.0
22/04:30pm 30.3 25.5 5.6 21 13.1 ESE 20 30 11 16 1012.6 - 0.0
22/04:00pm 29.5 25.0 6.2 23 12.4 ESE 19 28 10 15 1012.7 - 0.0
22/03:30pm 30.2 24.9 4.8 20 13.3 ESE 22 32 12 17 1013.0 - 0.0
22/03:00pm 31.0 26.1 2.3 16 14.4 ESE 17 28 9 15 1013.2 1012.8 0.0
22/02:30pm 30.3 24.2 2.5 17 14.0 ESE 24 35 13 19 1013.7 - 0.0
22/02:00pm 30.8 24.7 2.9 17 14.2 ENE 24 35 13 19 1014.2 - 0.0
22/01:30pm 30.0 24.1 3.9 19 13.4 E 24 39 13 21 1014.8 - 0.0
22/01:00pm 29.0 22.5 4.5 21 12.6 E 28 39 15 21 1015.4 - 0.0
22/12:30pm 29.2 22.8 5.3 22 12.5 E 28 39 15 21 1016.0 - 0.0
22/12:00pm 29.1 22.6 4.6 21 12.6 E 28 39 15 21 1016.8 1016.3 0.0
22/11:30am 27.6 20.6 5.8 25 11.4 E 32 44 17 24 1017.3 - 0.0
22/11:00am 27.2 22.5 7.6 29 10.6 E 22 37 12 20 1018.0 - 0.0
22/10:30am 23.8 22.6 12.8 50 6.4 E 11 17 6 9 1018.6 - 0.0
22/10:00am 22.3 20.8 12.0 52 5.8 E 11 15 6 8 1018.7 - 0.0
22/09:30am 20.1 17.6 11.1 56 5.0 ESE 15 19 8 10 1018.8 - 0.0
22/09:00am 19.7 17.5 10.7 56 4.9 ESE 13 17 7 9 1018.8 1018.3 0.0
22/08:30am 17.5 15.0 8.1 54 4.8 ESE 11 13 6 7 1018.7 - 0.0
22/08:00am 14.6 11.9 7.4 62 3.6 SE 11 13 6 7 1018.3 - 0.0
22/07:30am 12.1 9.2 6.4 68 2.7 ESE 11 13 6 7 1018.0 - 0.0
22/07:00am 11.9 8.6 6.2 68 2.7 SE 13 17 7 9 1017.6 - 0.0
22/06:30am 12.6 9.6 6.2 65 3.1 SE 11 13 6 7 1017.1 - 0.0
22/06:00am 12.5 9.5 5.9 64 3.1 ESE 11 13 6 7 1016.9 1016.4 0.0
22/05:30am 14.7 11.3 5.8 55 4.3 ESE 13 15 7 8 1016.7 - 0.0
22/05:00am 14.5 10.7 5.6 55 4.2 ESE 15 17 8 9 1016.6 - 0.0
22/04:30am 13.3 9.9 5.7 60 3.6 ESE 13 15 7 8 1016.7 - 0.0
22/04:00am 13.0 9.2 5.9 62 3.4 SE 15 15 8 8 1016.6 - 0.0
22/03:30am 13.4 10.4 6.0 61 3.5 SE 11 13 6 7 1016.7 - 0.0
22/03:00am 14.7 11.7 5.8 55 4.3 SE 11 13 6 7 1016.5 1016.0 0.0
22/02:30am 13.3 10.0 6.2 62 3.4 S 13 17 7 9 1016.5 - 0.0
22/02:00am 12.2 10.0 6.3 67 2.8 SE 7 7 4 4 1016.4 - 0.0
22/01:30am 14.7 12.5 6.0 56 4.2 SSE 7 7 4 4 1016.5 - 0.0
22/01:00am 15.6 13.3 5.8 52 4.7 SE 7 7 4 4 1016.4 - 0.0
22/12:30am 15.8 13.1 5.7 51 4.9 SE 9 9 5 5 1016.4 - 0.0
22/12:00am 15.7 12.7 5.9 52 4.7 ESE 11 11 6 6 1016.6 1016.1 0.0
 
Date/Time
CST
Temp
°C
App
Temp
°C
Dew
Point
Rel
Hum
%
Delta-T
°C
Wind Press
QNH
hPa
Press
MSL
hPa
Rain
since 9 am
mm
Dir
 
Spd
km/h
Gust
km/h
Spd
kts
Gust
kts
21/11:30pm 13.8 10.9 6.7 62 3.5 ESE 11 13 6 7 1016.8 - 0.0
21/11:00pm 14.5 11.9 6.3 58 4.0 SSE 9 9 5 5 1016.7 - 0.0
21/10:30pm 14.8 12.8 6.9 59 3.9 S 7 9 4 5 1016.9 - 0.0
21/10:00pm 16.2 14.3 6.6 53 4.7 S 6 7 3 4 1016.9 - 0.0
21/09:30pm 18.0 15.8 6.2 46 5.8 S 7 9 4 5 1016.8 - 0.0
21/09:00pm 19.2 17.0 6.3 43 6.5 SE 7 7 4 4 1016.6 1016.1 0.0
21/08:30pm 19.6 16.5 5.6 40 6.9 ESE 11 11 6 6 1016.4 - 0.0
21/08:00pm 20.3 17.2 5.5 38 7.4 ESE 11 13 6 7 1015.9 - 0.0
21/07:30pm 22.9 19.9 3.9 29 9.3 E 9 11 5 6 1015.5 - 0.0
21/07:00pm 24.8 21.4 4.0 26 10.4 ESE 11 11 6 6 1015.0 - 0.0
21/06:30pm 25.7 22.2 3.6 24 11.0 ESE 11 13 6 7 1014.6 - 0.0
21/06:00pm 27.8 24.1 4.2 22 12.0 SE 13 19 7 10 1014.2 1013.8 0.0
21/05:30pm 29.4 25.3 4.1 20 13.0 ESE 15 20 8 11 1013.9 - 0.0
21/05:00pm 30.2 26.2 4.8 20 13.3 ESE 15 24 8 13 1013.7 - 0.0
21/04:30pm 30.5 26.0 4.3 19 13.6 E 17 22 9 12 1013.8 - 0.0
21/04:00pm 30.5 26.4 4.3 19 13.6 ESE 15 24 8 13 1013.9 - 0.0
21/03:30pm 30.8 25.8 3.8 18 13.9 SE 19 26 10 14 1013.9 - 0.0
21/03:00pm 30.2 25.5 3.3 18 13.7 SE 17 30 9 16 1014.1 1013.7 0.0
21/02:30pm 29.7 25.8 3.6 19 13.3 E 13 20 7 11 1014.5 - 0.0
21/02:00pm 30.0 24.3 3.1 18 13.6 E 22 35 12 19 1014.8 - 0.0
21/01:30pm 29.5 24.7 2.7 18 13.4 ESE 17 28 9 15 1015.5 - 0.0
21/01:00pm 28.9 23.7 3.7 20 12.8 E 20 30 11 16 1016.0 - 0.0
21/12:30pm 28.6 23.5 4.2 21 12.5 SE 20 30 11 16 1016.8 - 0.0
21/12:00pm 27.9 22.4 4.2 22 12.1 SE 22 32 12 17 1017.2 1016.7 0.0
21/11:30am 27.3 22.6 5.0 24 11.5 ESE 19 26 10 14 1017.7 - 0.0
21/11:00am 25.5 21.9 6.7 30 9.9 ESE 15 19 8 10 1018.0 - 0.0
21/10:30am 24.2 21.1 7.4 34 8.9 ESE 13 20 7 11 1018.2 - 0.0
21/10:00am 23.5 20.3 8.4 38 8.1 ESE 15 20 8 11 1018.4 - 0.0
21/09:30am 21.2 17.8 5.9 37 7.7 ESE 13 17 7 9 1018.6 - 0.0
21/09:00am 18.9 15.3 5.0 40 6.8 SE 13 17 7 9 1018.5 1018.0 0.0
21/08:30am 17.0 13.3 4.7 44 5.9 SE 13 17 7 9 1018.4 - 0.0
21/08:00am 14.9 11.7 5.1 52 4.6 SE 11 15 6 8 1018.1 - 0.0
21/07:30am 12.2 8.7 5.6 64 3.1 SSE 13 13 7 7 1017.9 - 0.0
21/07:00am 11.1 8.0 5.4 68 2.6 SE 11 13 6 7 1017.5 - 0.0
21/06:30am 11.6 8.1 5.5 66 2.8 SE 13 13 7 7 1017.3 - 0.0
21/06:00am 11.7 8.3 5.8 67 2.8 SE 13 13 7 7 1017.0 1016.5 0.0
21/05:30am 12.3 8.9 5.9 65 3.0 SE 13 15 7 8 1016.8 - 0.0
21/05:00am 12.3 8.9 6.1 66 2.9 SE 13 15 7 8 1016.8 - 0.0
21/04:30am 12.5 9.6 6.3 66 3.0 SE 11 13 6 7 1016.7 - 0.0
21/04:00am 13.5 10.2 6.4 62 3.4 SSE 13 17 7 9 1016.5 - 0.0
21/03:30am 14.4 11.5 6.5 59 3.8 ESE 11 11 6 6 1016.2 - 0.0
21/03:00am 14.3 11.8 6.4 59 3.8 SE 9 11 5 6 1016.0 1015.6 0.0
21/02:30am 14.0 10.7 6.6 61 3.6 SSE 13 15 7 8 1016.0 - 0.0
21/02:00am 14.6 12.1 6.4 58 4.0 SE 9 11 5 6 1015.9 - 0.0
21/01:30am 14.7 12.3 6.8 59 3.9 SSE 9 9 5 5 1016.0 - 0.0
21/01:00am 14.9 13.1 7.2 60 3.8 ESE 6 7 3 4 1016.0 - 0.0
21/12:30am 15.8 13.8 7.0 56 4.4 SE 7 7 4 4 1016.0 - 0.0
21/12:00am 16.3 13.5 7.0 54 4.6 SSE 11 13 6 7 1015.9 1015.5 0.0
 
Date/Time
CST
Temp
°C
App
Temp
°C
Dew
Point
Rel
Hum
%
Delta-T
°C
Wind Press
QNH
hPa
Press
MSL
hPa
Rain
since 9 am
mm
Dir
 
Spd
km/h
Gust
km/h
Spd
kts
Gust
kts
20/11:30pm 16.6 13.8 7.0 53 4.8 SSE 11 11 6 6 1016.0 - 0.0
20/11:00pm 16.9 14.6 7.3 53 4.8 SE 9 9 5 5 1016.2 - 0.0
20/10:30pm 17.5 15.1 7.0 50 5.3 SE 9 11 5 6 1016.2 - 0.0
20/10:00pm 17.7 15.3 7.2 50 5.3 SSE 9 9 5 5 1016.2 - 0.0
20/09:30pm 18.2 16.2 7.3 49 5.5 ESE 7 9 4 5 1016.2 - 0.0
20/09:00pm 18.6 15.8 7.1 47 5.8 SE 11 11 6 6 1015.9 1015.5 0.0
20/08:30pm 19.6 17.2 7.0 44 6.4 SE 9 13 5 7 1015.8 - 0.0
20/08:00pm 19.9 17.6 7.3 44 6.5 S 9 11 5 6 1015.5 - 0.0
20/07:30pm 21.8 19.8 7.2 39 7.6 ESE 7 9 4 5 1015.0 - 0.0
20/07:00pm 24.7 22.2 6.4 31 9.5 ESE 9 11 5 6 1014.6 - 0.0
20/06:30pm 26.6 23.8 5.0 25 11.1 ESE 9 11 5 6 1014.1 - 0.0
20/06:00pm 28.5 25.2 4.7 22 12.3 ESE 11 13 6 7 1013.8 1013.4 0.0
20/05:30pm 29.6 25.1 4.3 20 13.1 ESE 17 22 9 12 1013.7 - 0.0
20/05:00pm 30.1 27.2 4.7 20 13.2 E 9 17 5 9 1013.7 - 0.0
20/04:30pm 30.0 26.7 4.6 20 13.2 SE 11 20 6 11 1013.8 - 0.0
20/04:00pm 30.5 26.0 4.3 19 13.6 ESE 17 24 9 13 1013.9 - 0.0
20/03:30pm 30.0 26.2 3.9 19 13.4 SSE 13 22 7 12 1014.0 - 0.0
20/03:00pm 30.0 25.6 4.6 20 13.2 ESE 17 26 9 14 1014.4 1014.0 0.0
20/02:30pm 29.3 25.3 4.7 21 12.8 SSE 15 26 8 14 1014.5 - 0.0
20/02:00pm 29.3 25.8 5.4 22 12.5 ESE 13 24 7 13 1014.9 - 0.0
20/01:30pm 28.8 25.3 5.6 23 12.2 ESE 13 22 7 12 1015.5 - 0.0

Other Formats:

Comma delimited format used in spreadsheet applications
http://www.bom.gov.au/fwo/IDD60801/IDD60801.94131.axf

JavaScript Object Notation format (JSON) in row-major order
http://www.bom.gov.au/fwo/IDD60801/IDD60801.94131.json